sensor_id;sensor_type;location;lat;lon;timestamp;P1;durP1;ratioP1;P2;durP2;ratioP2
76256;SDS011;65074;50.436;8.672;2023-04-08T00:01:43;4.23;;;2.93;;
76256;SDS011;65074;50.436;8.672;2023-04-08T00:04:08;3.57;;;2.63;;
76256;SDS011;65074;50.436;8.672;2023-04-08T00:06:34;4.87;;;2.93;;
76256;SDS011;65074;50.436;8.672;2023-04-08T00:08:59;4.70;;;3.00;;
76256;SDS011;65074;50.436;8.672;2023-04-08T00:11:24;4.03;;;2.90;;
76256;SDS011;65074;50.436;8.672;2023-04-08T00:13:49;6.97;;;3.23;;
76256;SDS011;65074;50.436;8.672;2023-04-08T00:16:15;4.82;;;3.53;;
76256;SDS011;65074;50.436;8.672;2023-04-08T00:18:40;4.37;;;3.00;;
76256;SDS011;65074;50.436;8.672;2023-04-08T00:21:06;5.07;;;3.10;;
76256;SDS011;65074;50.436;8.672;2023-04-08T00:23:32;6.30;;;3.53;;
76256;SDS011;65074;50.436;8.672;2023-04-08T00:25:57;6.00;;;3.53;;
76256;SDS011;65074;50.436;8.672;2023-04-08T00:28:22;4.87;;;3.00;;
76256;SDS011;65074;50.436;8.672;2023-04-08T00:30:48;4.30;;;2.43;;
76256;SDS011;65074;50.436;8.672;2023-04-08T00:33:13;3.83;;;3.00;;
76256;SDS011;65074;50.436;8.672;2023-04-08T00:35:38;5.33;;;2.90;;
76256;SDS011;65074;50.436;8.672;2023-04-08T00:38:03;4.80;;;3.33;;
76256;SDS011;65074;50.436;8.672;2023-04-08T00:40:32;7.50;;;4.55;;
76256;SDS011;65074;50.436;8.672;2023-04-08T00:42:57;6.10;;;3.45;;
76256;SDS011;65074;50.436;8.672;2023-04-08T00:45:22;4.60;;;3.05;;
76256;SDS011;65074;50.436;8.672;2023-04-08T00:47:47;6.23;;;3.60;;
76256;SDS011;65074;50.436;8.672;2023-04-08T00:50:16;4.95;;;3.10;;
76256;SDS011;65074;50.436;8.672;2023-04-08T00:52:42;6.88;;;4.07;;
76256;SDS011;65074;50.436;8.672;2023-04-08T00:55:07;7.13;;;4.30;;
76256;SDS011;65074;50.436;8.672;2023-04-08T00:57:32;5.80;;;3.83;;
76256;SDS011;65074;50.436;8.672;2023-04-08T00:59:58;5.30;;;3.10;;
76256;SDS011;65074;50.436;8.672;2023-04-08T01:07:14;7.13;;;4.10;;
76256;SDS011;65074;50.436;8.672;2023-04-08T01:09:44;7.65;;;4.20;;
76256;SDS011;65074;50.436;8.672;2023-04-08T01:12:10;6.68;;;3.42;;
76256;SDS011;65074;50.436;8.672;2023-04-08T01:14:37;6.30;;;3.72;;
76256;SDS011;65074;50.436;8.672;2023-04-08T01:17:03;8.13;;;4.30;;
76256;SDS011;65074;50.436;8.672;2023-04-08T01:19:33;7.90;;;4.35;;
76256;SDS011;65074;50.436;8.672;2023-04-08T01:22:01;5.20;;;3.85;;
76256;SDS011;65074;50.436;8.672;2023-04-08T01:24:28;8.00;;;5.30;;
76256;SDS011;65074;50.436;8.672;2023-04-08T01:26:55;7.90;;;4.93;;
76256;SDS011;65074;50.436;8.672;2023-04-08T01:29:23;7.85;;;4.53;;
76256;SDS011;65074;50.436;8.672;2023-04-08T01:31:49;5.85;;;3.42;;
76256;SDS011;65074;50.436;8.672;2023-04-08T01:34:14;6.55;;;4.43;;
76256;SDS011;65074;50.436;8.672;2023-04-08T01:36:41;8.23;;;5.20;;
76256;SDS011;65074;50.436;8.672;2023-04-08T01:39:08;7.57;;;4.82;;
76256;SDS011;65074;50.436;8.672;2023-04-08T01:41:33;6.00;;;4.05;;
76256;SDS011;65074;50.436;8.672;2023-04-08T01:43:59;6.70;;;4.60;;
76256;SDS011;65074;50.436;8.672;2023-04-08T01:46:26;6.05;;;4.65;;
76256;SDS011;65074;50.436;8.672;2023-04-08T01:48:51;7.95;;;5.22;;
76256;SDS011;65074;50.436;8.672;2023-04-08T01:51:16;7.38;;;4.50;;
76256;SDS011;65074;50.436;8.672;2023-04-08T01:53:42;8.18;;;4.78;;
76256;SDS011;65074;50.436;8.672;2023-04-08T01:56:10;7.70;;;4.93;;
76256;SDS011;65074;50.436;8.672;2023-04-08T01:58:39;7.03;;;4.75;;
76256;SDS011;65074;50.436;8.672;2023-04-08T02:01:08;7.95;;;5.85;;
76256;SDS011;65074;50.436;8.672;2023-04-08T02:03:34;9.82;;;5.88;;
76256;SDS011;65074;50.436;8.672;2023-04-08T02:06:00;7.30;;;4.13;;
76256;SDS011;65074;50.436;8.672;2023-04-08T02:08:27;7.10;;;4.73;;
76256;SDS011;65074;50.436;8.672;2023-04-08T02:10:53;9.98;;;6.55;;
76256;SDS011;65074;50.436;8.672;2023-04-08T02:13:18;9.83;;;7.00;;
76256;SDS011;65074;50.436;8.672;2023-04-08T02:15:45;11.10;;;6.50;;
76256;SDS011;65074;50.436;8.672;2023-04-08T02:18:21;10.00;;;6.00;;
76256;SDS011;65074;50.436;8.672;2023-04-08T02:20:47;11.32;;;7.30;;
76256;SDS011;65074;50.436;8.672;2023-04-08T02:23:21;10.68;;;6.05;;
76256;SDS011;65074;50.436;8.672;2023-04-08T02:25:47;7.25;;;4.25;;
76256;SDS011;65074;50.436;8.672;2023-04-08T02:28:12;11.93;;;7.28;;
76256;SDS011;65074;50.436;8.672;2023-04-08T02:30:42;9.95;;;5.30;;
76256;SDS011;65074;50.436;8.672;2023-04-08T02:33:08;8.52;;;5.75;;
76256;SDS011;65074;50.436;8.672;2023-04-08T02:35:35;11.98;;;5.88;;
76256;SDS011;65074;50.436;8.672;2023-04-08T02:38:00;10.60;;;6.13;;
76256;SDS011;65074;50.436;8.672;2023-04-08T02:40:29;11.45;;;6.40;;
76256;SDS011;65074;50.436;8.672;2023-04-08T02:42:55;6.47;;;3.85;;
76256;SDS011;65074;50.436;8.672;2023-04-08T02:45:23;10.50;;;5.47;;
76256;SDS011;65074;50.436;8.672;2023-04-08T02:47:51;9.95;;;4.95;;
76256;SDS011;65074;50.436;8.672;2023-04-08T02:50:16;10.10;;;6.70;;
76256;SDS011;65074;50.436;8.672;2023-04-08T02:52:41;9.68;;;5.78;;
76256;SDS011;65074;50.436;8.672;2023-04-08T02:55:09;6.32;;;3.45;;
76256;SDS011;65074;50.436;8.672;2023-04-08T02:57:38;10.40;;;6.35;;
76256;SDS011;65074;50.436;8.672;2023-04-08T03:00:03;12.05;;;7.03;;
76256;SDS011;65074;50.436;8.672;2023-04-08T03:02:29;11.18;;;6.43;;
76256;SDS011;65074;50.436;8.672;2023-04-08T03:04:54;9.23;;;4.80;;
76256;SDS011;65074;50.436;8.672;2023-04-08T03:07:19;7.80;;;4.82;;
76256;SDS011;65074;50.436;8.672;2023-04-08T03:09:45;9.07;;;5.13;;
76256;SDS011;65074;50.436;8.672;2023-04-08T03:12:10;10.23;;;5.53;;
76256;SDS011;65074;50.436;8.672;2023-04-08T03:14:35;9.33;;;5.33;;
76256;SDS011;65074;50.436;8.672;2023-04-08T03:17:01;10.43;;;6.30;;
76256;SDS011;65074;50.436;8.672;2023-04-08T03:19:26;8.13;;;4.70;;
76256;SDS011;65074;50.436;8.672;2023-04-08T03:21:51;8.97;;;5.50;;
76256;SDS011;65074;50.436;8.672;2023-04-08T03:24:16;8.13;;;5.03;;
76256;SDS011;65074;50.436;8.672;2023-04-08T03:26:41;8.43;;;4.37;;
76256;SDS011;65074;50.436;8.672;2023-04-08T03:29:07;7.77;;;4.70;;
76256;SDS011;65074;50.436;8.672;2023-04-08T03:31:32;8.50;;;5.05;;
76256;SDS011;65074;50.436;8.672;2023-04-08T03:33:57;9.03;;;5.07;;
76256;SDS011;65074;50.436;8.672;2023-04-08T03:36:23;8.83;;;5.53;;
76256;SDS011;65074;50.436;8.672;2023-04-08T03:38:48;9.23;;;5.20;;
76256;SDS011;65074;50.436;8.672;2023-04-08T03:41:13;9.47;;;5.27;;
76256;SDS011;65074;50.436;8.672;2023-04-08T03:43:38;8.77;;;4.90;;
76256;SDS011;65074;50.436;8.672;2023-04-08T03:46:03;6.33;;;4.20;;
76256;SDS011;65074;50.436;8.672;2023-04-08T03:48:29;10.20;;;5.87;;
76256;SDS011;65074;50.436;8.672;2023-04-08T03:50:54;9.53;;;4.77;;
76256;SDS011;65074;50.436;8.672;2023-04-08T03:53:19;10.55;;;4.85;;
76256;SDS011;65074;50.436;8.672;2023-04-08T03:55:44;8.77;;;5.10;;
76256;SDS011;65074;50.436;8.672;2023-04-08T03:58:10;11.70;;;5.77;;
76256;SDS011;65074;50.436;8.672;2023-04-08T04:00:35;10.10;;;5.73;;
76256;SDS011;65074;50.436;8.672;2023-04-08T04:03:01;9.05;;;4.47;;
76256;SDS011;65074;50.436;8.672;2023-04-08T04:05:26;11.20;;;5.68;;
76256;SDS011;65074;50.436;8.672;2023-04-08T04:07:51;10.60;;;6.23;;
76256;SDS011;65074;50.436;8.672;2023-04-08T04:10:17;11.90;;;6.17;;
76256;SDS011;65074;50.436;8.672;2023-04-08T04:12:42;10.30;;;6.30;;
76256;SDS011;65074;50.436;8.672;2023-04-08T04:15:08;10.57;;;6.30;;
76256;SDS011;65074;50.436;8.672;2023-04-08T04:17:34;11.85;;;6.15;;
76256;SDS011;65074;50.436;8.672;2023-04-08T04:19:59;14.95;;;7.05;;
76256;SDS011;65074;50.436;8.672;2023-04-08T04:22:27;12.15;;;6.53;;
76256;SDS011;65074;50.436;8.672;2023-04-08T04:24:52;18.33;;;8.03;;
76256;SDS011;65074;50.436;8.672;2023-04-08T04:27:17;15.02;;;7.05;;
76256;SDS011;65074;50.436;8.672;2023-04-08T04:29:43;12.37;;;6.63;;
76256;SDS011;65074;50.436;8.672;2023-04-08T04:32:08;10.13;;;5.88;;
76256;SDS011;65074;50.436;8.672;2023-04-08T04:34:33;8.55;;;5.07;;
76256;SDS011;65074;50.436;8.672;2023-04-08T04:36:59;11.27;;;5.03;;
76256;SDS011;65074;50.436;8.672;2023-04-08T04:39:24;11.63;;;7.40;;
76256;SDS011;65074;50.436;8.672;2023-04-08T04:41:50;10.32;;;6.53;;
76256;SDS011;65074;50.436;8.672;2023-04-08T04:44:15;14.38;;;7.57;;
76256;SDS011;65074;50.436;8.672;2023-04-08T04:46:41;14.30;;;7.47;;
76256;SDS011;65074;50.436;8.672;2023-04-08T04:49:06;10.17;;;4.93;;
76256;SDS011;65074;50.436;8.672;2023-04-08T04:51:31;9.97;;;6.27;;
76256;SDS011;65074;50.436;8.672;2023-04-08T04:53:57;13.38;;;6.55;;
76256;SDS011;65074;50.436;8.672;2023-04-08T04:56:22;11.63;;;6.18;;
76256;SDS011;65074;50.436;8.672;2023-04-08T04:58:47;8.60;;;4.73;;
76256;SDS011;65074;50.436;8.672;2023-04-08T05:01:13;8.63;;;4.53;;
76256;SDS011;65074;50.436;8.672;2023-04-08T05:03:38;9.63;;;5.50;;
76256;SDS011;65074;50.436;8.672;2023-04-08T05:06:03;9.13;;;4.90;;
76256;SDS011;65074;50.436;8.672;2023-04-08T05:08:28;10.00;;;4.97;;
76256;SDS011;65074;50.436;8.672;2023-04-08T05:10:54;8.90;;;4.65;;
76256;SDS011;65074;50.436;8.672;2023-04-08T05:13:20;10.07;;;5.38;;
76256;SDS011;65074;50.436;8.672;2023-04-08T05:15:46;10.35;;;5.22;;
76256;SDS011;65074;50.436;8.672;2023-04-08T05:18:11;10.75;;;5.95;;
76256;SDS011;65074;50.436;8.672;2023-04-08T05:20:37;9.67;;;5.80;;
76256;SDS011;65074;50.436;8.672;2023-04-08T05:23:02;9.05;;;4.60;;
76256;SDS011;65074;50.436;8.672;2023-04-08T05:25:28;12.87;;;5.93;;
76256;SDS011;65074;50.436;8.672;2023-04-08T05:27:53;10.13;;;6.15;;
76256;SDS011;65074;50.436;8.672;2023-04-08T05:30:20;10.90;;;5.03;;
76256;SDS011;65074;50.436;8.672;2023-04-08T05:32:45;12.10;;;6.80;;
76256;SDS011;65074;50.436;8.672;2023-04-08T05:35:11;12.43;;;6.28;;
76256;SDS011;65074;50.436;8.672;2023-04-08T05:37:36;9.40;;;5.57;;
76256;SDS011;65074;50.436;8.672;2023-04-08T05:40:01;14.93;;;7.53;;
76256;SDS011;65074;50.436;8.672;2023-04-08T05:42:26;13.30;;;6.40;;
76256;SDS011;65074;50.436;8.672;2023-04-08T05:44:52;12.27;;;7.17;;
76256;SDS011;65074;50.436;8.672;2023-04-08T05:47:17;15.17;;;7.03;;
76256;SDS011;65074;50.436;8.672;2023-04-08T05:49:42;12.77;;;7.03;;
76256;SDS011;65074;50.436;8.672;2023-04-08T05:52:07;10.47;;;6.10;;
76256;SDS011;65074;50.436;8.672;2023-04-08T05:54:33;12.17;;;6.40;;
76256;SDS011;65074;50.436;8.672;2023-04-08T05:56:58;9.10;;;4.93;;
76256;SDS011;65074;50.436;8.672;2023-04-08T05:59:23;16.43;;;7.90;;
76256;SDS011;65074;50.436;8.672;2023-04-08T06:01:48;12.17;;;7.13;;
76256;SDS011;65074;50.436;8.672;2023-04-08T06:04:14;15.30;;;7.97;;
76256;SDS011;65074;50.436;8.672;2023-04-08T06:06:41;18.42;;;8.80;;
76256;SDS011;65074;50.436;8.672;2023-04-08T06:09:06;17.08;;;8.57;;
76256;SDS011;65074;50.436;8.672;2023-04-08T06:11:32;13.63;;;7.82;;
76256;SDS011;65074;50.436;8.672;2023-04-08T06:13:58;16.03;;;8.97;;
76256;SDS011;65074;50.436;8.672;2023-04-08T06:16:23;18.30;;;8.97;;
76256;SDS011;65074;50.436;8.672;2023-04-08T06:18:48;10.83;;;6.33;;
76256;SDS011;65074;50.436;8.672;2023-04-08T06:21:13;12.57;;;7.03;;
76256;SDS011;65074;50.436;8.672;2023-04-08T06:23:39;12.00;;;6.93;;
76256;SDS011;65074;50.436;8.672;2023-04-08T06:26:04;5.85;;;4.18;;
76256;SDS011;65074;50.436;8.672;2023-04-08T06:28:30;13.20;;;7.90;;
76256;SDS011;65074;50.436;8.672;2023-04-08T06:30:56;11.65;;;6.88;;
76256;SDS011;65074;50.436;8.672;2023-04-08T06:33:21;12.50;;;6.70;;
76256;SDS011;65074;50.436;8.672;2023-04-08T06:35:46;9.55;;;6.65;;
76256;SDS011;65074;50.436;8.672;2023-04-08T06:38:11;16.27;;;6.60;;
76256;SDS011;65074;50.436;8.672;2023-04-08T06:40:37;12.90;;;6.57;;
76256;SDS011;65074;50.436;8.672;2023-04-08T06:43:03;10.90;;;6.95;;
76256;SDS011;65074;50.436;8.672;2023-04-08T06:45:34;14.48;;;7.28;;
76256;SDS011;65074;50.436;8.672;2023-04-08T06:47:59;14.18;;;7.45;;
76256;SDS011;65074;50.436;8.672;2023-04-08T06:50:24;13.05;;;7.18;;
76256;SDS011;65074;50.436;8.672;2023-04-08T06:52:50;12.57;;;6.85;;
76256;SDS011;65074;50.436;8.672;2023-04-08T06:55:15;12.52;;;6.60;;
76256;SDS011;65074;50.436;8.672;2023-04-08T06:57:41;12.33;;;6.63;;
76256;SDS011;65074;50.436;8.672;2023-04-08T07:00:06;13.33;;;6.73;;
76256;SDS011;65074;50.436;8.672;2023-04-08T07:02:31;11.77;;;6.25;;
76256;SDS011;65074;50.436;8.672;2023-04-08T07:04:57;11.73;;;8.23;;
76256;SDS011;65074;50.436;8.672;2023-04-08T07:07:22;11.00;;;6.07;;
76256;SDS011;65074;50.436;8.672;2023-04-08T07:09:48;11.77;;;6.47;;
76256;SDS011;65074;50.436;8.672;2023-04-08T07:12:13;11.00;;;6.25;;
76256;SDS011;65074;50.436;8.672;2023-04-08T07:14:38;8.80;;;5.93;;
76256;SDS011;65074;50.436;8.672;2023-04-08T07:17:04;10.07;;;5.68;;
76256;SDS011;65074;50.436;8.672;2023-04-08T07:19:30;10.18;;;5.82;;
76256;SDS011;65074;50.436;8.672;2023-04-08T07:21:55;11.02;;;5.43;;
76256;SDS011;65074;50.436;8.672;2023-04-08T07:24:21;11.05;;;6.55;;
76256;SDS011;65074;50.436;8.672;2023-04-08T07:26:47;12.73;;;6.90;;
76256;SDS011;65074;50.436;8.672;2023-04-08T07:29:12;10.33;;;6.43;;
76256;SDS011;65074;50.436;8.672;2023-04-08T07:31:37;12.80;;;7.00;;
76256;SDS011;65074;50.436;8.672;2023-04-08T07:34:02;8.47;;;5.40;;
76256;SDS011;65074;50.436;8.672;2023-04-08T07:36:28;11.50;;;6.27;;
76256;SDS011;65074;50.436;8.672;2023-04-08T07:38:53;13.07;;;6.37;;
76256;SDS011;65074;50.436;8.672;2023-04-08T07:41:18;11.03;;;6.77;;
76256;SDS011;65074;50.436;8.672;2023-04-08T07:43:44;11.75;;;6.20;;
76256;SDS011;65074;50.436;8.672;2023-04-08T07:46:10;11.25;;;7.13;;
76256;SDS011;65074;50.436;8.672;2023-04-08T07:48:35;11.35;;;6.90;;
76256;SDS011;65074;50.436;8.672;2023-04-08T07:51:07;11.30;;;6.63;;
76256;SDS011;65074;50.436;8.672;2023-04-08T07:53:33;11.68;;;6.85;;
76256;SDS011;65074;50.436;8.672;2023-04-08T07:55:59;8.95;;;5.38;;
76256;SDS011;65074;50.436;8.672;2023-04-08T07:58:25;10.13;;;5.60;;
76256;SDS011;65074;50.436;8.672;2023-04-08T08:00:50;12.18;;;7.28;;
76256;SDS011;65074;50.436;8.672;2023-04-08T08:03:16;12.23;;;7.18;;
76256;SDS011;65074;50.436;8.672;2023-04-08T08:05:41;9.88;;;6.00;;
76256;SDS011;65074;50.436;8.672;2023-04-08T08:08:06;13.23;;;6.30;;
76256;SDS011;65074;50.436;8.672;2023-04-08T08:10:32;9.27;;;5.83;;
76256;SDS011;65074;50.436;8.672;2023-04-08T08:12:57;10.40;;;6.63;;
76256;SDS011;65074;50.436;8.672;2023-04-08T08:15:22;12.90;;;7.43;;
76256;SDS011;65074;50.436;8.672;2023-04-08T08:17:47;14.60;;;7.73;;
76256;SDS011;65074;50.436;8.672;2023-04-08T08:20:13;11.40;;;6.87;;
76256;SDS011;65074;50.436;8.672;2023-04-08T08:22:38;14.53;;;7.83;;
76256;SDS011;65074;50.436;8.672;2023-04-08T08:25:04;13.52;;;7.65;;
76256;SDS011;65074;50.436;8.672;2023-04-08T08:27:29;15.82;;;8.65;;
76256;SDS011;65074;50.436;8.672;2023-04-08T08:29:54;16.75;;;8.65;;
76256;SDS011;65074;50.436;8.672;2023-04-08T08:32:21;13.15;;;7.57;;
76256;SDS011;65074;50.436;8.672;2023-04-08T08:34:46;13.02;;;6.85;;
76256;SDS011;65074;50.436;8.672;2023-04-08T08:37:11;12.40;;;6.83;;
76256;SDS011;65074;50.436;8.672;2023-04-08T08:39:36;11.77;;;7.33;;
76256;SDS011;65074;50.436;8.672;2023-04-08T08:42:02;12.77;;;7.33;;
76256;SDS011;65074;50.436;8.672;2023-04-08T08:44:28;13.90;;;7.10;;
76256;SDS011;65074;50.436;8.672;2023-04-08T08:46:56;13.55;;;7.35;;
76256;SDS011;65074;50.436;8.672;2023-04-08T08:49:21;11.50;;;6.93;;
76256;SDS011;65074;50.436;8.672;2023-04-08T08:51:48;11.48;;;7.03;;
76256;SDS011;65074;50.436;8.672;2023-04-08T08:54:14;12.27;;;7.57;;
76256;SDS011;65074;50.436;8.672;2023-04-08T08:56:40;10.20;;;6.57;;
76256;SDS011;65074;50.436;8.672;2023-04-08T08:59:07;10.20;;;6.90;;
76256;SDS011;65074;50.436;8.672;2023-04-08T09:01:33;12.18;;;6.80;;
76256;SDS011;65074;50.436;8.672;2023-04-08T09:04:05;9.02;;;6.00;;
76256;SDS011;65074;50.436;8.672;2023-04-08T09:06:31;12.07;;;6.75;;
76256;SDS011;65074;50.436;8.672;2023-04-08T09:08:56;12.25;;;7.40;;
76256;SDS011;65074;50.436;8.672;2023-04-08T09:11:21;9.77;;;6.30;;
76256;SDS011;65074;50.436;8.672;2023-04-08T09:13:47;10.27;;;5.13;;
76256;SDS011;65074;50.436;8.672;2023-04-08T09:16:13;11.65;;;6.90;;
76256;SDS011;65074;50.436;8.672;2023-04-08T09:18:40;11.10;;;5.88;;
76256;SDS011;65074;50.436;8.672;2023-04-08T09:21:08;13.48;;;7.38;;
76256;SDS011;65074;50.436;8.672;2023-04-08T09:23:38;11.88;;;7.20;;
76256;SDS011;65074;50.436;8.672;2023-04-08T09:28:29;10.33;;;5.83;;
76256;SDS011;65074;50.436;8.672;2023-04-08T09:30:55;10.45;;;6.18;;
76256;SDS011;65074;50.436;8.672;2023-04-08T09:33:20;12.70;;;7.20;;
76256;SDS011;65074;50.436;8.672;2023-04-08T09:35:53;11.27;;;6.60;;
76256;SDS011;65074;50.436;8.672;2023-04-08T09:38:19;11.53;;;6.63;;
76256;SDS011;65074;50.436;8.672;2023-04-08T09:40:44;15.10;;;7.80;;
76256;SDS011;65074;50.436;8.672;2023-04-08T09:43:09;12.98;;;7.65;;
76256;SDS011;65074;50.436;8.672;2023-04-08T09:45:37;11.57;;;7.47;;
76256;SDS011;65074;50.436;8.672;2023-04-08T09:48:09;10.57;;;7.47;;
76256;SDS011;65074;50.436;8.672;2023-04-08T09:50:39;14.05;;;6.70;;
76256;SDS011;65074;50.436;8.672;2023-04-08T09:53:08;14.27;;;7.60;;
76256;SDS011;65074;50.436;8.672;2023-04-08T09:55:35;12.75;;;7.22;;
76256;SDS011;65074;50.436;8.672;2023-04-08T09:58:02;11.13;;;6.63;;
76256;SDS011;65074;50.436;8.672;2023-04-08T10:00:35;13.70;;;7.00;;
76256;SDS011;65074;50.436;8.672;2023-04-08T10:03:09;9.43;;;5.63;;
76256;SDS011;65074;50.436;8.672;2023-04-08T10:05:35;11.18;;;6.57;;
76256;SDS011;65074;50.436;8.672;2023-04-08T10:08:01;8.65;;;5.93;;
76256;SDS011;65074;50.436;8.672;2023-04-08T10:10:27;11.27;;;6.13;;
76256;SDS011;65074;50.436;8.672;2023-04-08T10:12:52;10.70;;;6.93;;
76256;SDS011;65074;50.436;8.672;2023-04-08T10:17:47;7.93;;;5.93;;
76256;SDS011;65074;50.436;8.672;2023-04-08T10:22:57;9.65;;;6.82;;
76256;SDS011;65074;50.436;8.672;2023-04-08T10:27:55;9.90;;;6.55;;
76256;SDS011;65074;50.436;8.672;2023-04-08T10:32:54;11.85;;;6.90;;
76256;SDS011;65074;50.436;8.672;2023-04-08T10:35:29;9.10;;;5.70;;
76256;SDS011;65074;50.436;8.672;2023-04-08T10:37:55;11.27;;;7.75;;
76256;SDS011;65074;50.436;8.672;2023-04-08T10:40:20;10.68;;;6.70;;
76256;SDS011;65074;50.436;8.672;2023-04-08T10:42:46;9.15;;;6.10;;
76256;SDS011;65074;50.436;8.672;2023-04-08T10:45:15;9.97;;;6.87;;
76256;SDS011;65074;50.436;8.672;2023-04-08T10:47:41;11.65;;;6.97;;
76256;SDS011;65074;50.436;8.672;2023-04-08T10:50:13;9.73;;;6.47;;
76256;SDS011;65074;50.436;8.672;2023-04-08T10:52:46;10.88;;;6.13;;
76256;SDS011;65074;50.436;8.672;2023-04-08T10:55:11;13.32;;;6.38;;
76256;SDS011;65074;50.436;8.672;2023-04-08T10:57:37;11.57;;;6.32;;
76256;SDS011;65074;50.436;8.672;2023-04-08T11:00:05;9.43;;;5.00;;
76256;SDS011;65074;50.436;8.672;2023-04-08T11:02:31;10.82;;;6.80;;
76256;SDS011;65074;50.436;8.672;2023-04-08T11:04:57;11.38;;;6.60;;
76256;SDS011;65074;50.436;8.672;2023-04-08T11:07:24;12.15;;;7.00;;
76256;SDS011;65074;50.436;8.672;2023-04-08T11:09:49;10.88;;;6.68;;
76256;SDS011;65074;50.436;8.672;2023-04-08T11:12:15;10.83;;;6.47;;
76256;SDS011;65074;50.436;8.672;2023-04-08T11:14:43;9.65;;;5.97;;
76256;SDS011;65074;50.436;8.672;2023-04-08T11:17:09;9.63;;;6.38;;
76256;SDS011;65074;50.436;8.672;2023-04-08T11:19:34;8.65;;;4.47;;
76256;SDS011;65074;50.436;8.672;2023-04-08T11:22:01;9.35;;;5.38;;
76256;SDS011;65074;50.436;8.672;2023-04-08T11:24:26;11.23;;;6.32;;
76256;SDS011;65074;50.436;8.672;2023-04-08T11:26:52;10.85;;;6.18;;
76256;SDS011;65074;50.436;8.672;2023-04-08T11:29:18;11.20;;;7.25;;
76256;SDS011;65074;50.436;8.672;2023-04-08T11:31:45;11.32;;;6.32;;
76256;SDS011;65074;50.436;8.672;2023-04-08T11:34:12;10.70;;;5.95;;
76256;SDS011;65074;50.436;8.672;2023-04-08T11:36:45;11.65;;;7.38;;
76256;SDS011;65074;50.436;8.672;2023-04-08T11:39:11;10.88;;;6.38;;
76256;SDS011;65074;50.436;8.672;2023-04-08T11:41:36;10.57;;;6.23;;
76256;SDS011;65074;50.436;8.672;2023-04-08T11:44:03;11.27;;;6.57;;
76256;SDS011;65074;50.436;8.672;2023-04-08T11:46:30;9.85;;;6.47;;
76256;SDS011;65074;50.436;8.672;2023-04-08T11:49:03;10.73;;;6.53;;
76256;SDS011;65074;50.436;8.672;2023-04-08T11:51:28;11.85;;;7.75;;
76256;SDS011;65074;50.436;8.672;2023-04-08T11:53:54;10.40;;;6.70;;
76256;SDS011;65074;50.436;8.672;2023-04-08T11:56:20;10.68;;;6.53;;
76256;SDS011;65074;50.436;8.672;2023-04-08T11:58:46;11.25;;;6.75;;
76256;SDS011;65074;50.436;8.672;2023-04-08T12:01:12;11.57;;;6.30;;
76256;SDS011;65074;50.436;8.672;2023-04-08T12:03:37;11.35;;;6.28;;
76256;SDS011;65074;50.436;8.672;2023-04-08T12:06:02;8.70;;;5.37;;
76256;SDS011;65074;50.436;8.672;2023-04-08T12:08:29;11.43;;;6.78;;
76256;SDS011;65074;50.436;8.672;2023-04-08T12:10:54;10.75;;;7.18;;
76256;SDS011;65074;50.436;8.672;2023-04-08T12:13:19;10.23;;;6.23;;
76256;SDS011;65074;50.436;8.672;2023-04-08T12:15:45;10.35;;;6.50;;
76256;SDS011;65074;50.436;8.672;2023-04-08T12:18:10;10.57;;;6.57;;
76256;SDS011;65074;50.436;8.672;2023-04-08T12:20:36;10.43;;;6.45;;
76256;SDS011;65074;50.436;8.672;2023-04-08T12:23:01;10.23;;;5.97;;
76256;SDS011;65074;50.436;8.672;2023-04-08T12:25:26;10.20;;;6.20;;
76256;SDS011;65074;50.436;8.672;2023-04-08T12:27:51;10.48;;;6.68;;
76256;SDS011;65074;50.436;8.672;2023-04-08T12:30:17;10.38;;;5.90;;
76256;SDS011;65074;50.436;8.672;2023-04-08T12:32:42;10.43;;;6.25;;
76256;SDS011;65074;50.436;8.672;2023-04-08T12:35:09;12.48;;;7.97;;
76256;SDS011;65074;50.436;8.672;2023-04-08T12:37:35;11.32;;;6.32;;
76256;SDS011;65074;50.436;8.672;2023-04-08T12:40:00;9.83;;;7.10;;
76256;SDS011;65074;50.436;8.672;2023-04-08T12:42:26;13.60;;;6.45;;
76256;SDS011;65074;50.436;8.672;2023-04-08T12:44:52;8.88;;;5.40;;
76256;SDS011;65074;50.436;8.672;2023-04-08T12:47:17;8.95;;;5.35;;
76256;SDS011;65074;50.436;8.672;2023-04-08T12:49:43;10.65;;;6.63;;
76256;SDS011;65074;50.436;8.672;2023-04-08T12:52:08;11.20;;;6.93;;
76256;SDS011;65074;50.436;8.672;2023-04-08T12:54:33;10.70;;;7.07;;
76256;SDS011;65074;50.436;8.672;2023-04-08T12:56:58;10.23;;;6.87;;
76256;SDS011;65074;50.436;8.672;2023-04-08T12:59:25;12.88;;;7.05;;
76256;SDS011;65074;50.436;8.672;2023-04-08T13:01:50;10.03;;;6.07;;
76256;SDS011;65074;50.436;8.672;2023-04-08T13:04:15;10.27;;;6.77;;
76256;SDS011;65074;50.436;8.672;2023-04-08T13:06:41;10.10;;;6.90;;
76256;SDS011;65074;50.436;8.672;2023-04-08T13:09:06;12.70;;;7.77;;
76256;SDS011;65074;50.436;8.672;2023-04-08T13:11:31;11.17;;;7.20;;
76256;SDS011;65074;50.436;8.672;2023-04-08T13:13:58;10.75;;;6.47;;
76256;SDS011;65074;50.436;8.672;2023-04-08T13:16:23;10.13;;;7.03;;
76256;SDS011;65074;50.436;8.672;2023-04-08T13:18:48;10.93;;;8.25;;
76256;SDS011;65074;50.436;8.672;2023-04-08T13:21:14;10.83;;;6.80;;
76256;SDS011;65074;50.436;8.672;2023-04-08T13:23:39;10.50;;;6.97;;
76256;SDS011;65074;50.436;8.672;2023-04-08T13:26:04;11.45;;;6.40;;
76256;SDS011;65074;50.436;8.672;2023-04-08T13:28:30;12.65;;;6.93;;
76256;SDS011;65074;50.436;8.672;2023-04-08T13:30:56;11.17;;;6.60;;
76256;SDS011;65074;50.436;8.672;2023-04-08T13:33:21;9.70;;;6.28;;
76256;SDS011;65074;50.436;8.672;2023-04-08T13:35:46;6.35;;;4.78;;
76256;SDS011;65074;50.436;8.672;2023-04-08T13:38:11;8.57;;;5.70;;
76256;SDS011;65074;50.436;8.672;2023-04-08T13:40:37;10.05;;;6.55;;
76256;SDS011;65074;50.436;8.672;2023-04-08T13:43:03;11.27;;;7.05;;
76256;SDS011;65074;50.436;8.672;2023-04-08T13:45:29;9.32;;;6.47;;
76256;SDS011;65074;50.436;8.672;2023-04-08T13:47:54;10.63;;;6.50;;
76256;SDS011;65074;50.436;8.672;2023-04-08T13:50:20;10.63;;;7.50;;
76256;SDS011;65074;50.436;8.672;2023-04-08T13:52:46;10.10;;;6.17;;
76256;SDS011;65074;50.436;8.672;2023-04-08T13:55:11;11.03;;;7.50;;
76256;SDS011;65074;50.436;8.672;2023-04-08T13:57:36;9.17;;;6.30;;
76256;SDS011;65074;50.436;8.672;2023-04-08T14:00:01;9.57;;;6.57;;
76256;SDS011;65074;50.436;8.672;2023-04-08T14:02:35;11.55;;;6.72;;
76256;SDS011;65074;50.436;8.672;2023-04-08T14:05:00;11.63;;;7.10;;
76256;SDS011;65074;50.436;8.672;2023-04-08T14:07:25;10.20;;;6.82;;
76256;SDS011;65074;50.436;8.672;2023-04-08T14:09:51;11.23;;;6.07;;
76256;SDS011;65074;50.436;8.672;2023-04-08T14:12:16;11.13;;;6.43;;
76256;SDS011;65074;50.436;8.672;2023-04-08T14:14:41;12.53;;;6.97;;
76256;SDS011;65074;50.436;8.672;2023-04-08T14:17:06;13.80;;;6.23;;
76256;SDS011;65074;50.436;8.672;2023-04-08T14:19:32;12.60;;;6.37;;
76256;SDS011;65074;50.436;8.672;2023-04-08T14:21:57;8.23;;;5.83;;
76256;SDS011;65074;50.436;8.672;2023-04-08T14:24:22;12.87;;;6.40;;
76256;SDS011;65074;50.436;8.672;2023-04-08T14:26:47;11.03;;;6.43;;
76256;SDS011;65074;50.436;8.672;2023-04-08T14:29:13;11.40;;;6.90;;
76256;SDS011;65074;50.436;8.672;2023-04-08T14:31:38;11.40;;;7.30;;
76256;SDS011;65074;50.436;8.672;2023-04-08T14:34:03;9.73;;;7.23;;
76256;SDS011;65074;50.436;8.672;2023-04-08T14:36:29;13.32;;;6.90;;
76256;SDS011;65074;50.436;8.672;2023-04-08T14:38:55;10.68;;;6.55;;
76256;SDS011;65074;50.436;8.672;2023-04-08T14:41:21;10.88;;;7.03;;
76256;SDS011;65074;50.436;8.672;2023-04-08T14:43:46;9.27;;;6.50;;
76256;SDS011;65074;50.436;8.672;2023-04-08T14:46:12;11.73;;;6.55;;
76256;SDS011;65074;50.436;8.672;2023-04-08T14:48:37;12.30;;;7.40;;